createdAt,value
2017-05-31T00:01:51.061Z,61.00
2017-05-31T00:04:18.897Z,59.76
2017-05-31T00:06:47.002Z,60.36
2017-05-31T00:09:14.841Z,55.74
2017-05-31T00:11:42.629Z,64.92
2017-05-31T00:14:10.461Z,57.28
2017-05-31T00:16:38.298Z,62.72
2017-05-31T00:19:06.100Z,52.94
2017-05-31T00:21:33.912Z,48.76
2017-05-31T00:24:01.705Z,51.68
2017-05-31T00:26:29.752Z,54.10
2017-05-31T00:28:57.552Z,60.92
2017-05-31T00:31:25.346Z,67.12
2017-05-31T00:33:53.188Z,64.70
2017-05-31T00:36:20.977Z,69.46
2017-05-31T00:38:48.792Z,61.82
2017-05-31T00:41:16.588Z,61.92
2017-05-31T00:43:44.404Z,56.92
2017-05-31T00:46:12.197Z,57.60
2017-05-31T00:48:40.035Z,59.06
2017-05-31T00:51:07.857Z,44.48
2017-05-31T00:53:35.648Z,51.96
2017-05-31T00:56:03.467Z,52.42
2017-05-31T00:58:31.269Z,52.90
2017-05-31T01:00:59.107Z,51.30
2017-05-31T01:03:26.897Z,50.30
2017-05-31T01:05:54.736Z,50.06
2017-05-31T01:08:22.532Z,47.86
2017-05-31T01:10:50.320Z,45.92
2017-05-31T01:13:18.137Z,51.96
2017-05-31T01:15:45.932Z,42.08
2017-05-31T01:18:13.757Z,40.58
2017-05-31T01:20:41.556Z,43.94
2017-05-31T01:23:09.352Z,40.00
2017-05-31T01:25:36.401Z,38.78
2017-05-31T01:28:04.188Z,42.80
2017-05-31T01:30:32.035Z,36.08
2017-05-31T01:32:59.838Z,38.64
2017-05-31T01:35:27.628Z,37.06
2017-05-31T01:37:55.453Z,36.50
2017-05-31T01:40:23.250Z,42.36
2017-05-31T01:42:51.292Z,35.50
2017-05-31T01:45:19.119Z,42.52
2017-05-31T01:47:46.924Z,38.28
2017-05-31T01:50:14.740Z,42.76
2017-05-31T01:52:42.532Z,39.92
2017-05-31T01:55:10.348Z,39.34
2017-05-31T01:57:38.143Z,35.70
2017-05-31T02:00:05.984Z,41.38
2017-05-31T02:02:33.838Z,33.14
2017-05-31T02:05:01.629Z,41.60
2017-05-31T02:07:29.445Z,40.70
2017-05-31T02:09:57.244Z,39.50
2017-05-31T02:12:25.064Z,38.46
2017-05-31T02:14:52.859Z,38.10
2017-05-31T02:17:20.697Z,32.48
2017-05-31T02:19:48.497Z,39.04
2017-05-31T02:22:16.292Z,34.76
2017-05-31T02:24:44.113Z,46.94
2017-05-31T02:27:11.909Z,40.48
2017-05-31T02:29:39.760Z,49.04
2017-05-31T02:32:07.552Z,37.36
2017-05-31T02:34:35.341Z,42.76
2017-05-31T02:37:03.164Z,40.16
2017-05-31T02:39:30.957Z,45.00
2017-05-31T02:41:58.777Z,49.48
2017-05-31T02:44:26.572Z,51.26
2017-05-31T02:46:54.387Z,45.32
2017-05-31T02:49:22.180Z,47.94
2017-05-31T02:51:50.021Z,57.62
2017-05-31T02:54:17.820Z,50.06
2017-05-31T02:56:45.605Z,50.96
2017-05-31T02:59:13.431Z,47.90
2017-05-31T03:01:41.232Z,51.60
2017-05-31T03:04:09.057Z,48.20
2017-05-31T03:06:36.848Z,47.96
2017-05-31T03:09:04.677Z,63.38
2017-05-31T03:11:32.467Z,57.80
2017-05-31T03:14:00.313Z,47.88
2017-05-31T03:16:28.105Z,57.52
2017-05-31T03:18:55.900Z,47.54
2017-05-31T03:21:23.717Z,49.98
2017-05-31T03:23:51.513Z,45.48
2017-05-31T03:26:19.346Z,49.94
2017-05-31T03:28:47.141Z,45.62
2017-05-31T03:31:14.936Z,49.20
2017-05-31T03:33:42.752Z,46.38
2017-05-31T03:36:10.544Z,46.42
2017-05-31T03:38:38.365Z,40.78
2017-05-31T03:41:06.156Z,44.18
2017-05-31T03:43:33.948Z,36.08
2017-05-31T03:46:01.867Z,42.92
2017-05-31T03:48:29.661Z,50.52
2017-05-31T03:50:57.681Z,45.40
2017-05-31T03:53:25.472Z,38.34
2017-05-31T03:55:53.259Z,40.64
2017-05-31T03:58:21.073Z,40.66
2017-05-31T04:00:48.868Z,39.40
2017-05-31T04:03:16.680Z,39.20
2017-05-31T04:05:44.480Z,38.02
2017-05-31T04:08:12.300Z,34.30
2017-05-31T04:10:40.109Z,39.06
2017-05-31T04:13:07.900Z,39.82
2017-05-31T04:15:35.724Z,25.84
2017-05-31T04:18:03.516Z,37.64
2017-05-31T04:20:31.564Z,37.06
2017-05-31T04:22:59.365Z,28.66
2017-05-31T04:25:27.160Z,30.68
2017-05-31T04:27:54.982Z,27.98
2017-05-31T04:30:22.845Z,27.54
2017-05-31T04:32:51.097Z,24.35
2017-05-31T04:35:18.889Z,22.98
2017-05-31T04:37:46.685Z,19.96
2017-05-31T04:40:14.504Z,19.58
2017-05-31T04:42:42.297Z,26.26
2017-05-31T04:45:10.120Z,24.38
2017-05-31T04:47:37.912Z,25.16
2017-05-31T04:50:05.753Z,24.22
2017-05-31T04:52:33.544Z,21.80
2017-05-31T04:55:01.344Z,21.80
2017-05-31T04:57:29.174Z,19.12
2017-05-31T04:59:57.017Z,17.96
2017-05-31T05:02:24.837Z,12.72
2017-05-31T05:04:52.691Z,17.36
2017-05-31T05:07:20.865Z,13.28
2017-05-31T05:09:48.660Z,14.02
2017-05-31T05:12:16.448Z,14.28
2017-05-31T05:14:44.257Z,10.10
2017-05-31T05:17:12.048Z,12.44
2017-05-31T05:19:39.869Z,13.36
2017-05-31T05:22:07.657Z,16.34
2017-05-31T05:24:35.488Z,11.84
2017-05-31T05:27:03.329Z,13.74
2017-05-31T05:29:31.153Z,15.88
2017-05-31T05:31:58.944Z,13.02
2017-05-31T05:34:26.741Z,15.06
2017-05-31T05:36:54.560Z,11.60
2017-05-31T05:39:22.353Z,12.56
2017-05-31T05:41:50.163Z,10.06
2017-05-31T05:44:17.952Z,9.56
2017-05-31T05:46:46.118Z,7.34
2017-05-31T05:49:13.912Z,9.84
2017-05-31T05:51:41.709Z,15.14
2017-05-31T05:54:09.465Z,15.86
2017-05-31T05:56:37.203Z,16.84
2017-05-31T05:59:04.969Z,6.16
2017-05-31T06:01:32.707Z,13.96
2017-05-31T06:04:00.799Z,7.54
2017-05-31T06:06:28.532Z,16.60
2017-05-31T06:08:56.256Z,9.86
2017-05-31T06:11:24.020Z,8.96
2017-05-31T06:13:51.754Z,8.00
2017-05-31T06:16:19.531Z,11.88
2017-05-31T06:18:47.275Z,17.40
2017-05-31T06:21:15.009Z,6.56
2017-05-31T06:23:42.771Z,13.16
2017-05-31T06:26:10.498Z,8.16
2017-05-31T06:28:38.252Z,4.92
2017-05-31T06:31:05.991Z,9.96
2017-05-31T06:33:33.776Z,8.56
2017-05-31T06:36:01.518Z,6.94
2017-05-31T06:38:29.252Z,6.20
2017-05-31T06:40:57.009Z,4.44
2017-05-31T06:43:24.739Z,5.92
2017-05-31T06:45:52.501Z,5.58
2017-05-31T06:48:20.239Z,9.56
2017-05-31T06:50:48.008Z,4.74
2017-05-31T06:53:15.736Z,6.50
2017-05-31T06:55:43.455Z,4.96
2017-05-31T06:58:11.528Z,3.40
2017-05-31T07:00:38.501Z,8.66
2017-05-31T07:03:06.236Z,16.22
2017-05-31T07:05:33.989Z,6.62
2017-05-31T07:08:01.765Z,9.70
2017-05-31T07:10:29.500Z,5.62
2017-05-31T07:12:57.229Z,4.12
2017-05-31T07:15:24.994Z,8.06
2017-05-31T07:17:52.734Z,4.14
2017-05-31T07:20:20.504Z,8.42
2017-05-31T07:22:48.256Z,3.62
2017-05-31T07:25:15.981Z,6.90
2017-05-31T07:27:43.872Z,5.56
2017-05-31T07:30:11.601Z,4.22
2017-05-31T07:32:39.333Z,4.10
2017-05-31T07:35:07.087Z,16.54
2017-05-31T07:37:34.848Z,14.20
2017-05-31T07:40:02.602Z,13.16
2017-05-31T07:42:30.653Z,5.86
2017-05-31T07:44:58.381Z,6.44
2017-05-31T07:47:26.120Z,4.14
2017-05-31T07:49:53.884Z,12.24
2017-05-31T07:52:21.635Z,7.66
2017-05-31T07:54:49.387Z,9.70
2017-05-31T07:57:17.110Z,11.48
2017-05-31T07:59:44.853Z,9.14
2017-05-31T08:02:12.581Z,10.70
2017-05-31T08:04:40.330Z,5.60
2017-05-31T08:07:07.295Z,10.52
2017-05-31T08:09:35.023Z,7.86
2017-05-31T08:12:02.776Z,13.24
2017-05-31T08:14:30.508Z,4.20
2017-05-31T08:16:58.265Z,5.56
2017-05-31T08:19:25.996Z,6.66
2017-05-31T08:21:53.774Z,20.60
2017-05-31T08:24:21.500Z,12.54
2017-05-31T08:26:49.230Z,14.50
2017-05-31T08:29:16.987Z,10.80
2017-05-31T08:31:44.723Z,4.90
2017-05-31T08:34:12.481Z,8.56
2017-05-31T08:36:40.212Z,10.02
2017-05-31T08:39:07.976Z,5.98
2017-05-31T08:41:35.720Z,11.82
2017-05-31T08:44:03.487Z,7.50
2017-05-31T08:46:31.241Z,9.50
2017-05-31T08:48:58.976Z,10.84
2017-05-31T08:51:26.724Z,13.36
2017-05-31T08:53:54.465Z,3.80
2017-05-31T08:56:22.218Z,12.06
2017-05-31T08:58:49.952Z,15.28
2017-05-31T09:01:18.157Z,13.84
2017-05-31T09:03:45.892Z,7.38
2017-05-31T09:06:13.664Z,13.84
2017-05-31T09:08:41.881Z,4.64
2017-05-31T09:11:08.852Z,5.70
2017-05-31T09:13:36.584Z,13.98
2017-05-31T09:16:04.332Z,7.40
2017-05-31T09:18:32.088Z,5.58
2017-05-31T09:20:59.815Z,8.74
2017-05-31T09:23:27.583Z,9.68
2017-05-31T09:25:55.320Z,12.42
2017-05-31T09:28:23.067Z,11.94
2017-05-31T09:30:50.796Z,13.18
2017-05-31T09:33:18.569Z,7.90
2017-05-31T09:35:46.295Z,9.06
2017-05-31T09:38:14.020Z,5.88
2017-05-31T09:40:41.780Z,12.48
2017-05-31T09:43:09.528Z,9.08
2017-05-31T09:45:37.420Z,12.60
2017-05-31T09:48:05.144Z,8.62
2017-05-31T09:50:32.873Z,7.86
2017-05-31T09:53:00.652Z,9.60
2017-05-31T09:55:28.380Z,9.55
2017-05-31T09:57:56.116Z,12.06
2017-05-31T10:00:23.866Z,8.06
2017-05-31T10:02:51.595Z,12.22
2017-05-31T10:05:19.356Z,8.74
2017-05-31T10:07:47.188Z,21.60
2017-05-31T10:10:14.956Z,9.66
2017-05-31T10:12:42.716Z,9.46
2017-05-31T10:15:10.488Z,10.66
2017-05-31T10:17:38.243Z,17.26
2017-05-31T10:20:05.984Z,18.86
2017-05-31T10:22:33.735Z,6.56
2017-05-31T10:25:01.471Z,9.08
2017-05-31T10:27:29.224Z,7.88
2017-05-31T10:29:56.966Z,11.38
2017-05-31T10:32:24.911Z,7.18
2017-05-31T10:34:52.681Z,7.08
2017-05-31T10:37:20.406Z,7.42
2017-05-31T10:39:47.389Z,10.44
2017-05-31T10:42:15.110Z,2.98
2017-05-31T10:44:43.241Z,4.44
2017-05-31T10:47:11.069Z,6.04
2017-05-31T10:49:38.852Z,13.30
2017-05-31T10:52:06.612Z,19.04
2017-05-31T10:54:34.339Z,5.60
2017-05-31T10:57:02.125Z,12.16
2017-05-31T10:59:29.859Z,8.94
2017-05-31T11:01:57.589Z,8.12
2017-05-31T11:04:25.339Z,8.00
2017-05-31T11:06:53.069Z,9.48
2017-05-31T11:09:21.088Z,8.80
2017-05-31T11:11:48.821Z,11.06
2017-05-31T11:14:16.560Z,14.74
2017-05-31T11:16:44.317Z,17.62
2017-05-31T11:19:12.044Z,18.12
2017-05-31T11:21:39.967Z,4.80
2017-05-31T11:24:07.692Z,7.80
2017-05-31T11:26:35.660Z,11.44
2017-05-31T11:29:03.400Z,8.14
2017-05-31T11:31:31.133Z,12.74
2017-05-31T11:33:58.888Z,10.52
2017-05-31T11:36:26.613Z,8.16
2017-05-31T11:38:54.395Z,10.08
2017-05-31T11:41:22.132Z,7.30
2017-05-31T11:43:49.871Z,9.48
2017-05-31T11:46:17.630Z,14.34
2017-05-31T11:48:45.368Z,6.42
2017-05-31T11:51:13.886Z,8.82
2017-05-31T11:53:41.625Z,10.00
2017-05-31T11:56:09.351Z,5.92
2017-05-31T11:58:37.113Z,13.38
2017-05-31T12:01:04.869Z,9.56
2017-05-31T12:03:32.632Z,18.36
2017-05-31T12:06:00.363Z,23.70
2017-05-31T12:08:28.137Z,12.04
2017-05-31T12:10:55.867Z,15.52
2017-05-31T12:13:23.966Z,4.96
2017-05-31T12:15:51.696Z,4.82
2017-05-31T12:18:19.428Z,8.74
2017-05-31T12:20:47.177Z,7.54
2017-05-31T12:23:14.908Z,7.68
2017-05-31T12:25:42.660Z,11.04
2017-05-31T12:28:10.392Z,9.66
2017-05-31T12:30:38.155Z,7.16
2017-05-31T12:33:05.887Z,20.90
2017-05-31T12:35:33.656Z,8.38
2017-05-31T12:38:01.405Z,10.04
2017-05-31T12:40:29.784Z,8.20
2017-05-31T12:42:57.536Z,6.04
2017-05-31T12:45:25.325Z,14.20
2017-05-31T12:47:53.076Z,7.66
2017-05-31T12:50:20.800Z,9.76
2017-05-31T12:52:48.701Z,11.82
2017-05-31T12:55:16.429Z,8.52
2017-05-31T12:57:44.164Z,10.96
2017-05-31T13:00:11.917Z,5.58
2017-05-31T13:02:39.648Z,6.44
2017-05-31T13:05:07.395Z,5.70
2017-05-31T13:07:35.120Z,9.98
2017-05-31T13:10:02.877Z,10.30
2017-05-31T13:12:30.613Z,14.64
2017-05-31T13:14:58.368Z,5.90
2017-05-31T13:17:26.112Z,15.28
2017-05-31T13:19:53.893Z,6.32
2017-05-31T13:22:21.615Z,7.96
2017-05-31T13:24:49.347Z,15.04
2017-05-31T13:27:17.101Z,17.84
2017-05-31T13:29:44.834Z,15.28
2017-05-31T13:32:12.600Z,9.20
2017-05-31T13:34:40.332Z,12.28
2017-05-31T13:37:08.144Z,16.40
2017-05-31T13:39:35.908Z,12.60
2017-05-31T13:42:03.646Z,8.62
2017-05-31T13:44:31.409Z,11.02
2017-05-31T13:46:59.136Z,8.68
2017-05-31T13:49:26.941Z,8.60
2017-05-31T13:51:54.664Z,13.74
2017-05-31T13:54:22.389Z,9.34
2017-05-31T13:56:50.152Z,10.30
2017-05-31T13:59:17.917Z,15.08
2017-05-31T14:01:45.674Z,6.78
2017-05-31T14:04:13.400Z,7.66
2017-05-31T14:06:41.156Z,12.52
2017-05-31T14:09:08.940Z,16.60
2017-05-31T14:11:36.695Z,10.76
2017-05-31T14:14:04.424Z,10.06
2017-05-31T14:16:32.208Z,16.28
2017-05-31T14:18:59.936Z,17.16
2017-05-31T14:21:27.677Z,12.98
2017-05-31T14:23:55.435Z,11.90
2017-05-31T14:26:23.164Z,11.92
2017-05-31T14:28:50.921Z,12.64
2017-05-31T14:31:18.684Z,14.94
2017-05-31T14:33:46.426Z,8.26
2017-05-31T14:36:14.246Z,9.78
2017-05-31T14:38:41.977Z,16.20
2017-05-31T14:41:09.760Z,7.94
2017-05-31T14:43:37.516Z,10.88
2017-05-31T14:46:05.252Z,10.88
2017-05-31T14:48:33.044Z,8.38
2017-05-31T14:51:00.781Z,13.74
2017-05-31T14:53:28.572Z,9.58
2017-05-31T14:55:56.299Z,9.90
2017-05-31T14:58:24.038Z,11.10
2017-05-31T15:00:51.792Z,15.38
2017-05-31T15:03:19.543Z,8.72
2017-05-31T15:05:47.308Z,7.02
2017-05-31T15:08:15.028Z,9.22
2017-05-31T15:10:42.837Z,10.26
2017-05-31T15:13:10.624Z,16.34
2017-05-31T15:15:38.352Z,7.10
2017-05-31T15:18:06.105Z,8.60
2017-05-31T15:20:33.841Z,10.52
2017-05-31T15:23:01.632Z,8.56
2017-05-31T15:25:29.369Z,7.90
2017-05-31T15:27:57.100Z,6.40
2017-05-31T15:30:24.952Z,13.30
2017-05-31T15:32:52.680Z,12.46
2017-05-31T15:35:20.473Z,14.12
2017-05-31T15:37:48.244Z,12.52
2017-05-31T15:40:15.973Z,11.02
2017-05-31T15:42:43.750Z,11.44
2017-05-31T15:45:11.485Z,11.58
2017-05-31T15:47:39.261Z,11.70
2017-05-31T15:50:07.569Z,7.30
2017-05-31T15:52:35.328Z,11.02
2017-05-31T15:55:03.088Z,15.96
2017-05-31T15:57:30.824Z,11.56
2017-05-31T15:59:58.589Z,7.42
2017-05-31T16:02:26.316Z,15.46
2017-05-31T16:04:54.056Z,11.30
2017-05-31T16:07:21.824Z,10.78
2017-05-31T16:09:49.551Z,10.78
2017-05-31T16:12:17.332Z,16.70
2017-05-31T16:14:45.072Z,10.68
2017-05-31T16:17:12.840Z,10.04
2017-05-31T16:19:40.568Z,7.36
2017-05-31T16:22:08.312Z,6.62
2017-05-31T16:24:36.066Z,9.36
2017-05-31T16:27:03.800Z,16.82
2017-05-31T16:29:31.560Z,6.88
2017-05-31T16:31:59.349Z,11.16
2017-05-31T16:34:27.120Z,11.52
2017-05-31T16:36:54.847Z,11.38
2017-05-31T16:39:22.576Z,10.20
2017-05-31T16:41:49.566Z,7.48
2017-05-31T16:44:17.300Z,14.66
2017-05-31T16:46:45.055Z,14.78
2017-05-31T16:49:12.788Z,6.26
2017-05-31T16:51:40.560Z,10.24
2017-05-31T16:54:08.297Z,21.20
2017-05-31T16:56:36.028Z,10.70
2017-05-31T16:59:03.788Z,12.66
2017-05-31T17:01:31.524Z,17.18
2017-05-31T17:03:59.579Z,11.26
2017-05-31T17:06:27.310Z,8.20
2017-05-31T17:08:55.042Z,16.36
2017-05-31T17:11:22.817Z,11.12
2017-05-31T17:13:50.542Z,12.24
2017-05-31T17:16:18.421Z,12.88
2017-05-31T17:18:46.152Z,18.66
2017-05-31T17:21:13.889Z,8.86
2017-05-31T17:23:41.662Z,11.26
2017-05-31T17:26:09.397Z,12.66
2017-05-31T17:28:37.127Z,21.36
2017-05-31T17:31:04.888Z,12.30
2017-05-31T17:33:32.612Z,13.02
2017-05-31T17:36:00.387Z,18.14
2017-05-31T17:38:28.124Z,10.06
2017-05-31T17:40:56.149Z,7.24
2017-05-31T17:43:23.886Z,12.42
2017-05-31T17:45:51.631Z,14.48
2017-05-31T17:48:19.420Z,11.38
2017-05-31T17:50:47.183Z,19.84
2017-05-31T17:53:14.930Z,14.84
2017-05-31T17:55:42.696Z,16.98
2017-05-31T17:58:10.455Z,15.00
2017-05-31T18:00:38.209Z,10.32
2017-05-31T18:03:05.949Z,10.50
2017-05-31T18:05:33.716Z,12.62
2017-05-31T18:08:01.452Z,24.90
2017-05-31T18:10:29.220Z,14.34
2017-05-31T18:12:56.967Z,15.78
2017-05-31T18:15:24.813Z,16.98
2017-05-31T18:17:52.573Z,17.04
2017-05-31T18:20:20.308Z,17.44
2017-05-31T18:22:48.069Z,16.40
2017-05-31T18:25:15.800Z,20.56
2017-05-31T18:27:43.600Z,7.96
2017-05-31T18:30:11.332Z,17.12
2017-05-31T18:32:39.204Z,23.06
2017-05-31T18:35:06.960Z,17.74
2017-05-31T18:37:34.694Z,17.76
2017-05-31T18:40:02.484Z,16.92
2017-05-31T18:42:30.253Z,16.00
2017-05-31T18:44:57.984Z,13.74
2017-05-31T18:47:25.771Z,19.06
2017-05-31T18:49:53.529Z,16.32
2017-05-31T18:52:20.536Z,17.46
2017-05-31T18:54:48.296Z,11.20
2017-05-31T18:57:16.052Z,13.53
2017-05-31T18:59:43.786Z,19.04
2017-05-31T19:02:11.840Z,21.96
2017-05-31T19:04:39.588Z,19.14
2017-05-31T19:07:07.325Z,20.46
2017-05-31T19:09:35.091Z,23.90
2017-05-31T19:12:02.831Z,19.16
2017-05-31T19:14:30.600Z,20.62
2017-05-31T19:16:58.328Z,20.18
2017-05-31T19:19:26.110Z,19.64
2017-05-31T19:21:53.880Z,13.24
2017-05-31T19:24:21.625Z,19.98
2017-05-31T19:26:49.385Z,12.46
2017-05-31T19:29:17.122Z,31.40
2017-05-31T19:31:44.876Z,18.00
2017-05-31T19:34:12.616Z,15.32
2017-05-31T19:36:40.392Z,14.62
2017-05-31T19:39:08.136Z,22.48
2017-05-31T19:41:35.892Z,11.66
2017-05-31T19:44:03.668Z,15.12
2017-05-31T19:46:31.405Z,21.52
2017-05-31T19:48:59.167Z,27.56
2017-05-31T19:51:26.904Z,16.54
2017-05-31T19:53:54.660Z,19.14
2017-05-31T19:56:22.395Z,22.48
2017-05-31T19:58:50.181Z,14.70
2017-05-31T20:01:17.917Z,10.58
2017-05-31T20:03:45.656Z,25.24
2017-05-31T20:06:13.417Z,18.38
2017-05-31T20:08:41.152Z,8.44
2017-05-31T20:11:09.249Z,18.74
2017-05-31T20:13:36.984Z,19.70
2017-05-31T20:16:04.714Z,9.22
2017-05-31T20:18:32.478Z,16.12
2017-05-31T20:21:00.216Z,14.50
2017-05-31T20:23:27.974Z,13.24
2017-05-31T20:25:55.708Z,13.42
2017-05-31T20:28:23.490Z,17.98
2017-05-31T20:30:51.237Z,17.72
2017-05-31T20:33:18.972Z,18.00
2017-05-31T20:35:46.734Z,27.36
2017-05-31T20:38:14.807Z,18.32
2017-05-31T20:40:42.564Z,12.54
2017-05-31T20:43:10.300Z,10.78
2017-05-31T20:45:38.062Z,9.04
2017-05-31T20:48:05.789Z,19.06
2017-05-31T20:50:33.574Z,24.64
2017-05-31T20:53:01.324Z,17.46
2017-05-31T20:55:29.060Z,24.20
2017-05-31T20:57:56.816Z,17.56
2017-05-31T21:00:24.552Z,14.36
2017-05-31T21:02:52.341Z,18.76
2017-05-31T21:05:20.436Z,21.58
2017-05-31T21:07:48.176Z,18.46
2017-05-31T21:10:15.916Z,19.30
2017-05-31T21:12:43.693Z,17.20
2017-05-31T21:15:11.837Z,31.12
2017-05-31T21:17:39.652Z,12.62
2017-05-31T21:20:07.405Z,11.64
2017-05-31T21:22:35.296Z,16.96
2017-05-31T21:25:03.115Z,17.90
2017-05-31T21:27:30.897Z,18.54
2017-05-31T21:29:58.656Z,18.24
2017-05-31T21:32:26.400Z,13.42
2017-05-31T21:34:54.164Z,15.40
2017-05-31T21:37:21.908Z,22.02
2017-05-31T21:39:49.700Z,17.00
2017-05-31T21:42:17.444Z,25.38
2017-05-31T21:44:45.175Z,15.44
2017-05-31T21:47:12.932Z,15.56
2017-05-31T21:49:40.688Z,18.18
2017-05-31T21:52:08.444Z,14.30
2017-05-31T21:54:36.188Z,15.23
2017-05-31T21:57:03.956Z,15.04
2017-05-31T21:59:31.688Z,14.36
2017-05-31T22:01:59.506Z,29.46
2017-05-31T22:04:27.464Z,16.04
2017-05-31T22:06:55.202Z,15.00
2017-05-31T22:09:22.938Z,23.42
2017-05-31T22:11:50.700Z,11.54
2017-05-31T22:14:18.468Z,13.64
2017-05-31T22:16:46.207Z,15.93
2017-05-31T22:19:13.997Z,14.12
2017-05-31T22:21:41.744Z,16.93
2017-05-31T22:24:09.481Z,16.22
2017-05-31T22:26:37.253Z,22.58
2017-05-31T22:29:05.015Z,25.32
2017-05-31T22:31:32.791Z,10.63
2017-05-31T22:34:00.539Z,20.42
2017-05-31T22:36:28.316Z,15.58
2017-05-31T22:38:56.048Z,15.42
2017-05-31T22:41:23.785Z,15.52
2017-05-31T22:43:51.548Z,14.68
2017-05-31T22:46:19.287Z,19.12
2017-05-31T22:48:47.055Z,16.25
2017-05-31T22:51:14.811Z,12.48
2017-05-31T22:53:42.570Z,11.22
2017-05-31T22:56:09.539Z,11.23
2017-05-31T22:58:37.296Z,13.00
2017-05-31T23:01:05.033Z,23.52
2017-05-31T23:03:32.969Z,11.40
2017-05-31T23:06:00.706Z,19.80
2017-05-31T23:08:28.441Z,19.47
2017-05-31T23:10:56.219Z,17.07
2017-05-31T23:13:23.957Z,19.15
2017-05-31T23:15:51.717Z,14.48
2017-05-31T23:18:19.452Z,15.42
2017-05-31T23:20:47.228Z,17.18
2017-05-31T23:23:14.971Z,12.83
2017-05-31T23:25:42.704Z,23.45
2017-05-31T23:28:10.478Z,15.60
2017-05-31T23:30:38.212Z,13.27
2017-05-31T23:33:05.987Z,20.95
2017-05-31T23:35:33.731Z,15.85
2017-05-31T23:38:01.464Z,15.87
2017-05-31T23:40:29.217Z,16.58
2017-05-31T23:42:56.950Z,19.70
2017-05-31T23:45:24.717Z,16.77
2017-05-31T23:47:52.492Z,21.03
2017-05-31T23:50:20.220Z,9.93
2017-05-31T23:52:47.984Z,15.05
2017-05-31T23:55:15.716Z,18.00
2017-05-31T23:57:43.471Z,20.82
